KMCE/MCE METAR and TAF weather

Enter ICAO airport designator
Station Type Date Time Source
KMCE METAR 2018/12/17 01:53 UTC NOAA

KMCE 170153Z AUTO 08004KT 8SM FEW120 13/09 A3005 RMK AO2 SLP175 T01280089


Station Type Date Time Source
KMCE Decoded METAR 2018/12/17 01:53 UTC NOAA

MERCED MUNICIPAL AIRPORT, CA, United States (KMCE) 37-17N 120-30W 47M
Dec 16, 2018 - 08:53 PM EST / 2018.12.17 0153 UTC
Wind: from the E (080 degrees) at 5 MPH (4 KT):0
Visibility: 8 mile(s):0
Sky conditions: mostly clear
Temperature: 55.0 F (12.8 C)
Dew Point: 48.0 F (8.9 C)
Relative Humidity: 77%
Pressure (altimeter): 30.05 in. Hg (1017 hPa)
ob: KMCE 170153Z AUTO 08004KT 8SM FEW120 13/09 A3005 RMK AO2 SLP175 T01280089
cycle: 2

Station Type Date Time Source
KMCE TAF 2018/12/16 18:36 UTC NOAA

TAF KMCE 161735Z 1618/1718 24006KT P6SM FEW050 SCT120 BKN200
FM162300 15008KT P6SM SCT050 BKN120
TEMPO 1623/1703 5SM -RA BR BKN050
FM170300 15009KT 4SM -RA BR SCT030 OVC050
FM170800 12009KT 4SM -RA BR SCT015 OVC030
TEMPO 1709/1713 2SM RA BR BKN015


Example: see airport list